Time;durP1;ratioP1;P1;durP2;ratioP2;P2;SDS_P1;SDS_P2;PMS_P1;PMS_P2;Temp;Humidity;BMP_temperature;BMP_pressure;BME280_temperature;BME280_humidity;BME280_pressure;Samples;Min_cycle;Max_cycle;Signal;HPM_P1;HPM_P2
2021/11/06 00:04:05;;;;;;;25.80;19.13;;;5.10;99.90;;;;;;4998020;28;20423;-84
2021/11/06 00:06:39;;;;;;;25.85;19.65;;;5.10;99.90;;;;;;5008417;28;20042;-85
2021/11/06 00:09:05;;;;;;;26.73;19.65;;;5.00;99.90;;;;;;5022268;23;20042;-80
2021/11/06 00:11:31;;;;;;;26.90;19.75;;;5.00;99.90;;;;;;5019224;28;20014;-82
2021/11/06 00:13:57;;;;;;;28.23;21.38;;;5.00;99.90;;;;;;5018995;28;20565;-82
2021/11/06 00:16:22;;;;;;;28.83;20.88;;;5.00;99.90;;;;;;5022095;28;20241;-82
2021/11/06 00:18:48;;;;;;;28.92;21.63;;;5.00;99.90;;;;;;5015653;28;20033;-79
2021/11/06 00:21:13;;;;;;;28.13;21.73;;;4.90;99.90;;;;;;5011876;28;20073;-79
2021/11/06 00:23:43;;;;;;;25.15;19.10;;;4.90;99.90;;;;;;5021768;28;20049;-79
2021/11/06 00:26:09;;;;;;;22.42;19.17;;;4.90;99.90;;;;;;5022654;28;20022;-78
2021/11/06 00:28:34;;;;;;;25.65;18.67;;;4.80;99.90;;;;;;5025972;28;20026;-79
2021/11/06 00:31:00;;;;;;;26.92;18.52;;;4.80;99.90;;;;;;5022978;28;20040;-81
2021/11/06 00:33:25;;;;;;;69.78;18.73;;;4.80;99.90;;;;;;5023231;28;20049;-80
2021/11/06 00:35:51;;;;;;;77.45;18.58;;;4.80;99.90;;;;;;5020099;28;20030;-79
2021/11/06 00:38:17;;;;;;;24.52;17.05;;;4.80;99.90;;;;;;5013561;28;20116;-79
2021/11/06 00:40:42;;;;;;;61.95;16.92;;;4.70;99.90;;;;;;5022865;28;20395;-80
2021/11/06 00:43:08;;;;;;;26.00;19.15;;;4.70;99.90;;;;;;5020018;28;20030;-80
2021/11/06 00:45:33;;;;;;;27.65;17.35;;;4.50;99.90;;;;;;5018754;28;20065;-81
2021/11/06 00:47:59;;;;;;;24.55;17.58;;;4.40;99.90;;;;;;5003089;28;20195;-81
2021/11/06 00:50:24;;;;;;;22.45;17.42;;;4.40;99.90;;;;;;5013983;28;20026;-82
2021/11/06 00:52:51;;;;;;;29.05;16.20;;;4.20;99.90;;;;;;5013952;28;20048;-81
2021/11/06 00:55:17;;;;;;;42.90;14.40;;;4.40;99.90;;;;;;5011064;28;20022;-78
2021/11/06 00:57:43;;;;;;;41.17;14.52;;;4.50;99.90;;;;;;5007104;28;20018;-79
2021/11/06 01:00:11;;;;;;;35.22;15.25;;;4.30;99.90;;;;;;5015330;28;20018;-79
2021/11/06 01:02:38;;;;;;;36.03;16.85;;;4.20;99.90;;;;;;5010528;28;20034;-77
2021/11/06 01:05:07;;;;;;;32.90;17.05;;;4.10;99.90;;;;;;5000429;28;20045;-76
2021/11/06 01:07:33;;;;;;;30.05;17.45;;;4.00;99.90;;;;;;5020465;28;20026;-78
2021/11/06 01:09:59;;;;;;;43.75;16.70;;;4.00;99.90;;;;;;5016527;28;20138;-73
2021/11/06 01:12:24;;;;;;;27.35;16.55;;;3.90;99.90;;;;;;5009256;28;20037;-74
2021/11/06 01:14:50;;;;;;;25.92;17.88;;;3.90;99.90;;;;;;5008165;28;20030;-75
2021/11/06 01:17:16;;;;;;;25.52;18.38;;;3.80;99.90;;;;;;5007142;28;20032;-76
2021/11/06 01:19:42;;;;;;;22.20;18.27;;;3.80;99.90;;;;;;5015075;28;20109;-76
2021/11/06 01:22:07;;;;;;;23.50;17.20;;;3.90;99.90;;;;;;5018900;28;20093;-75
2021/11/06 01:24:33;;;;;;;22.42;18.83;;;4.10;99.90;;;;;;5016584;28;20038;-74
2021/11/06 01:26:59;;;;;;;26.23;16.63;;;4.10;99.90;;;;;;5002806;28;20037;-75
2021/11/06 01:29:24;;;;;;;24.38;17.30;;;4.20;99.90;;;;;;5002831;28;20390;-74
2021/11/06 01:31:50;;;;;;;28.90;18.90;;;4.30;99.90;;;;;;5022708;28;20064;-75
2021/11/06 01:34:16;;;;;;;43.38;21.40;;;4.30;99.90;;;;;;5017218;28;20018;-75
2021/11/06 01:36:41;;;;;;;29.40;18.50;;;4.40;99.90;;;;;;5015630;28;20462;-75
2021/11/06 01:39:07;;;;;;;28.55;17.40;;;4.50;99.90;;;;;;5014477;28;20032;-75
2021/11/06 01:41:34;;;;;;;57.13;21.58;;;4.40;99.90;;;;;;5011449;28;20026;-75
2021/11/06 01:44:01;;;;;;;42.88;20.85;;;4.50;99.90;;;;;;5011987;28;20022;-75
2021/11/06 01:46:29;;;;;;;32.55;19.67;;;4.50;99.90;;;;;;5011347;28;20052;-75
2021/11/06 01:48:55;;;;;;;49.45;20.52;;;4.60;99.90;;;;;;5012008;28;20024;-76
2021/11/06 01:51:20;;;;;;;56.40;21.73;;;4.50;99.90;;;;;;5014094;28;20112;-75
2021/11/06 01:53:46;;;;;;;55.58;23.58;;;4.50;99.90;;;;;;5021482;28;20041;-75
2021/11/06 01:56:13;;;;;;;50.65;22.75;;;4.50;99.90;;;;;;5016984;28;20065;-75
2021/11/06 01:58:42;;;;;;;47.67;24.23;;;4.50;99.90;;;;;;5007732;28;20014;-75
2021/11/06 02:01:08;;;;;;;54.40;21.60;;;4.60;99.90;;;;;;5010851;28;20511;-74
2021/11/06 02:03:34;;;;;;;44.88;21.67;;;4.60;99.90;;;;;;5004339;28;20140;-76
2021/11/06 02:06:00;;;;;;;53.83;23.75;;;4.50;99.90;;;;;;5003480;28;20034;-75
2021/11/06 02:08:26;;;;;;;66.40;24.88;;;4.50;99.90;;;;;;5009642;28;20092;-75
2021/11/06 02:10:51;;;;;;;74.45;23.35;;;4.60;99.90;;;;;;5008989;28;20025;-75
2021/11/06 02:13:17;;;;;;;56.35;24.35;;;4.60;99.90;;;;;;5014984;28;20030;-76
2021/11/06 02:15:43;;;;;;;104.95;25.50;;;4.60;99.90;;;;;;5014711;28;20557;-75
2021/11/06 02:18:09;;;;;;;75.50;25.13;;;4.60;99.90;;;;;;5013245;28;20033;-76
2021/11/06 02:20:35;;;;;;;89.18;27.25;;;4.70;99.90;;;;;;5014859;28;20088;-75
2021/11/06 02:23:01;;;;;;;101.60;26.67;;;4.70;99.90;;;;;;5013312;28;20521;-76
2021/11/06 02:25:26;;;;;;;91.65;24.42;;;4.70;99.90;;;;;;5003740;28;20033;-76
2021/11/06 02:27:53;;;;;;;93.85;27.70;;;4.70;99.90;;;;;;5014082;28;20037;-75
2021/11/06 02:30:18;;;;;;;62.92;26.08;;;4.70;99.90;;;;;;5013526;28;20022;-75
2021/11/06 02:32:46;;;;;;;42.53;23.40;;;4.80;99.90;;;;;;5013248;28;20037;-75
2021/11/06 02:35:12;;;;;;;61.90;22.85;;;4.80;99.90;;;;;;5009974;28;20093;-76
2021/11/06 02:37:39;;;;;;;43.03;20.73;;;5.10;99.90;;;;;;5009904;28;20103;-76
2021/11/06 02:40:06;;;;;;;42.15;21.08;;;5.10;99.90;;;;;;5014346;28;20057;-76
2021/11/06 02:42:33;;;;;;;35.65;19.13;;;5.20;99.90;;;;;;5014277;28;20091;-75
2021/11/06 02:44:58;;;;;;;39.03;19.80;;;5.30;99.90;;;;;;5013477;28;20451;-76
2021/11/06 02:47:24;;;;;;;55.35;19.92;;;5.30;99.90;;;;;;5014226;28;20033;-76
2021/11/06 02:49:49;;;;;;;49.85;20.48;;;5.30;99.90;;;;;;5013783;28;20030;-76
2021/11/06 02:52:16;;;;;;;38.17;19.85;;;5.30;99.90;;;;;;5012792;28;20040;-76
2021/11/06 02:54:41;;;;;;;44.95;19.85;;;5.30;99.90;;;;;;5014145;28;20044;-76
2021/11/06 02:57:10;;;;;;;39.80;19.20;;;5.40;99.90;;;;;;5013974;28;20471;-76
2021/11/06 02:59:36;;;;;;;68.30;18.67;;;5.40;99.90;;;;;;5010562;28;20018;-76
2021/11/06 03:02:02;;;;;;;39.88;21.10;;;5.50;99.90;;;;;;5008558;28;20080;-76
2021/11/06 03:04:28;;;;;;;57.15;19.27;;;5.50;99.90;;;;;;5000356;28;20093;-76
2021/11/06 03:06:53;;;;;;;41.20;20.75;;;5.30;99.90;;;;;;5012343;28;20552;-75
2021/11/06 03:09:19;;;;;;;29.35;18.85;;;5.20;99.90;;;;;;5012189;28;20038;-76
2021/11/06 03:11:44;;;;;;;24.45;16.25;;;5.30;99.90;;;;;;5011860;28;20034;-76
2021/11/06 03:14:11;;;;;;;31.85;17.45;;;5.20;99.90;;;;;;5013481;28;20130;-76
2021/11/06 03:16:41;;;;;;;30.88;17.73;;;5.00;99.90;;;;;;5013365;28;20025;-76
2021/11/06 03:19:07;;;;;;;23.90;17.80;;;5.00;99.90;;;;;;4994141;28;20019;-76
2021/11/06 03:21:33;;;;;;;20.73;16.38;;;4.90;99.90;;;;;;4993844;28;20311;-75
2021/11/06 03:23:59;;;;;;;24.63;16.85;;;4.80;99.90;;;;;;4998748;28;20366;-75
2021/11/06 03:26:25;;;;;;;25.35;16.88;;;4.80;99.90;;;;;;5012479;28;20081;-76
2021/11/06 03:28:51;;;;;;;30.08;15.95;;;4.70;99.90;;;;;;5012234;28;20037;-76
2021/11/06 03:31:17;;;;;;;25.60;17.13;;;4.80;99.90;;;;;;5010545;28;20478;-76
2021/11/06 03:33:42;;;;;;;34.33;15.85;;;4.70;99.90;;;;;;5008134;28;20030;-76
2021/11/06 03:36:08;;;;;;;25.17;15.88;;;4.70;99.90;;;;;;5012852;28;20368;-76
2021/11/06 03:38:34;;;;;;;37.08;18.02;;;4.70;99.90;;;;;;5013323;28;20030;-76
2021/11/06 03:40:59;;;;;;;35.58;18.73;;;4.70;99.90;;;;;;5012590;28;20125;-76
2021/11/06 03:43:25;;;;;;;30.13;19.02;;;4.70;99.90;;;;;;5013701;28;20563;-76
2021/11/06 03:45:50;;;;;;;31.13;18.83;;;4.70;99.90;;;;;;5008506;28;20658;-76
2021/11/06 03:48:16;;;;;;;48.13;19.88;;;4.70;99.90;;;;;;5008763;28;20029;-76
2021/11/06 03:50:42;;;;;;;24.65;16.95;;;4.70;99.90;;;;;;5022027;28;20009;-75
2021/11/06 03:53:07;;;;;;;27.83;17.45;;;4.70;99.90;;;;;;5029717;28;20034;-76
2021/11/06 03:55:33;;;;;;;24.63;17.75;;;4.70;99.90;;;;;;5014768;28;20038;-76
2021/11/06 03:57:59;;;;;;;23.58;16.77;;;4.70;99.90;;;;;;5028258;28;20026;-76
2021/11/06 04:00:24;;;;;;;21.85;17.17;;;4.70;99.90;;;;;;5025332;28;20423;-76
2021/11/06 04:02:50;;;;;;;23.33;18.08;;;4.70;99.90;;;;;;5013899;28;20110;-76
2021/11/06 04:05:16;;;;;;;27.73;16.95;;;4.70;99.90;;;;;;5037804;28;20566;-75
2021/11/06 04:07:43;;;;;;;43.58;17.67;;;4.70;99.90;;;;;;5009587;28;20061;-76
2021/11/06 04:10:10;;;;;;;84.40;17.70;;;4.70;99.90;;;;;;4993338;28;20053;-77
2021/11/06 04:12:36;;;;;;;48.17;17.40;;;4.60;99.90;;;;;;5012969;28;20108;-76
2021/11/06 04:15:04;;;;;;;30.45;17.02;;;4.60;99.90;;;;;;5011128;28;20034;-75
2021/11/06 04:17:29;;;;;;;40.33;18.02;;;4.60;99.90;;;;;;5011537;28;20475;-76
2021/11/06 04:19:55;;;;;;;28.55;17.70;;;4.60;99.90;;;;;;5028470;28;20026;-75
2021/11/06 04:22:21;;;;;;;45.50;17.30;;;4.60;99.90;;;;;;5012771;28;20037;-76
2021/11/06 04:24:46;;;;;;;117.53;19.08;;;4.60;99.90;;;;;;5012621;28;20025;-76
2021/11/06 04:27:12;;;;;;;65.22;18.35;;;4.50;99.90;;;;;;5010989;28;20026;-76
2021/11/06 04:29:37;;;;;;;34.67;19.13;;;4.40;99.90;;;;;;5011509;28;20042;-76
2021/11/06 04:32:04;;;;;;;49.95;19.15;;;4.40;99.90;;;;;;5011576;28;20023;-76
2021/11/06 04:34:30;;;;;;;27.10;18.88;;;4.50;99.90;;;;;;5012187;28;20080;-77
2021/11/06 04:36:56;;;;;;;30.25;18.33;;;4.50;99.90;;;;;;5003746;28;20030;-77
2021/11/06 04:39:21;;;;;;;29.30;19.30;;;4.50;99.90;;;;;;5010439;28;20026;-76
2021/11/06 04:41:47;;;;;;;31.30;20.70;;;4.50;99.90;;;;;;5007842;28;20022;-76
2021/11/06 04:44:13;;;;;;;36.95;19.98;;;4.50;99.90;;;;;;5011189;28;20026;-75
2021/11/06 04:46:38;;;;;;;50.92;19.88;;;4.50;99.90;;;;;;5003872;28;20025;-76
2021/11/06 04:49:04;;;;;;;30.05;20.75;;;4.50;99.90;;;;;;5011867;28;20505;-75
2021/11/06 04:51:30;;;;;;;24.92;18.83;;;4.50;99.90;;;;;;5012151;28;20398;-75
2021/11/06 04:53:55;;;;;;;23.70;17.05;;;4.50;99.90;;;;;;5013152;28;20611;-74
2021/11/06 04:56:21;;;;;;;20.85;16.38;;;4.40;99.90;;;;;;5011100;28;20449;-75
2021/11/06 04:58:46;;;;;;;21.65;14.85;;;4.30;99.90;;;;;;5015044;28;20025;-76
2021/11/06 05:01:12;;;;;;;23.35;16.65;;;4.30;99.90;;;;;;5016078;28;20356;-77
2021/11/06 05:03:37;;;;;;;24.55;16.25;;;4.40;99.90;;;;;;5016155;28;20033;-75
2021/11/06 05:06:03;;;;;;;21.67;16.13;;;4.30;99.90;;;;;;5016251;28;20021;-76
2021/11/06 05:08:29;;;;;;;18.48;15.90;;;4.20;99.90;;;;;;5014421;28;20494;-75
2021/11/06 05:10:54;;;;;;;18.40;15.02;;;4.20;99.90;;;;;;5016291;28;20297;-76
2021/11/06 05:13:20;;;;;;;18.45;15.27;;;4.10;99.90;;;;;;5016418;28;20426;-75
2021/11/06 05:15:45;;;;;;;17.83;15.20;;;4.00;99.90;;;;;;5016351;28;20022;-76
2021/11/06 05:18:13;;;;;;;16.08;13.60;;;4.10;99.90;;;;;;5015951;28;20097;-76
2021/11/06 05:20:40;;;;;;;17.27;14.38;;;4.10;99.90;;;;;;5010492;28;20110;-75
2021/11/06 05:23:06;;;;;;;18.98;14.93;;;4.00;99.90;;;;;;5000251;28;20077;-75
2021/11/06 05:25:31;;;;;;;19.25;15.93;;;4.00;99.90;;;;;;5016279;28;20033;-76
2021/11/06 05:27:57;;;;;;;19.63;15.40;;;4.00;99.90;;;;;;5017606;28;20026;-76
2021/11/06 05:30:23;;;;;;;20.67;15.45;;;4.00;99.90;;;;;;5018055;28;20509;-76
2021/11/06 05:32:48;;;;;;;19.65;15.32;;;4.00;99.90;;;;;;5021064;28;20037;-76
2021/11/06 05:35:15;;;;;;;19.95;15.23;;;4.00;99.90;;;;;;5017018;28;20069;-76
2021/11/06 05:37:41;;;;;;;19.25;15.10;;;4.00;99.90;;;;;;5015914;28;20020;-76
2021/11/06 05:40:08;;;;;;;20.52;17.08;;;4.00;99.90;;;;;;5017404;28;20533;-76
2021/11/06 05:42:34;;;;;;;24.33;18.45;;;4.00;99.90;;;;;;5014604;28;20038;-75
2021/11/06 05:45:01;;;;;;;25.13;18.08;;;4.00;99.90;;;;;;5006879;28;20056;-76
2021/11/06 05:47:27;;;;;;;23.80;16.02;;;4.10;99.90;;;;;;5011280;28;20037;-76
2021/11/06 05:49:52;;;;;;;22.92;16.23;;;4.10;99.90;;;;;;5018028;28;20033;-75
2021/11/06 05:52:18;;;;;;;24.00;16.40;;;4.20;99.90;;;;;;5015455;28;20029;-76
2021/11/06 05:54:43;;;;;;;69.50;16.38;;;4.10;99.90;;;;;;5008564;28;20422;-75
2021/11/06 05:57:09;;;;;;;23.13;15.55;;;4.40;99.90;;;;;;5006619;28;20570;-75
2021/11/06 05:59:34;;;;;;;37.83;14.18;;;4.40;99.90;;;;;;5016682;28;20032;-75
2021/11/06 06:02:00;;;;;;;71.70;14.55;;;4.50;99.90;;;;;;5013525;28;20042;-75
2021/11/06 06:04:26;;;;;;;97.57;16.60;;;4.60;99.90;;;;;;5019510;28;20446;-76
2021/11/06 06:06:51;;;;;;;21.58;14.70;;;4.30;99.90;;;;;;5019647;28;20026;-76
2021/11/06 06:09:17;;;;;;;27.08;15.25;;;4.20;99.90;;;;;;5021538;23;20105;-78
2021/11/06 06:11:42;;;;;;;20.10;14.82;;;4.10;99.90;;;;;;5013320;28;20014;-79
2021/11/06 06:14:08;;;;;;;17.70;13.57;;;4.10;99.90;;;;;;5018256;28;20037;-80
2021/11/06 06:16:33;;;;;;;33.70;13.35;;;4.10;99.90;;;;;;5031673;28;20118;-78
2021/11/06 06:18:59;;;;;;;29.77;12.98;;;4.20;99.90;;;;;;5027736;28;20035;-79
2021/11/06 06:21:25;;;;;;;21.55;13.10;;;4.30;99.90;;;;;;4998270;28;20373;-77
2021/11/06 06:23:50;;;;;;;18.08;13.85;;;4.20;99.90;;;;;;4992265;28;20078;-79
2021/11/06 06:26:16;;;;;;;16.50;13.80;;;4.20;99.90;;;;;;4989986;28;20034;-78
2021/11/06 06:28:42;;;;;;;24.15;15.98;;;4.10;99.90;;;;;;4989351;28;20030;-78
2021/11/06 06:31:07;;;;;;;19.70;16.05;;;4.10;99.90;;;;;;4987936;28;20414;-79
2021/11/06 06:33:33;;;;;;;20.70;15.95;;;4.00;99.90;;;;;;4992293;28;20046;-79
2021/11/06 06:35:59;;;;;;;21.30;17.55;;;4.00;99.90;;;;;;4984217;28;20038;-79
2021/11/06 06:38:25;;;;;;;21.88;16.40;;;4.00;99.90;;;;;;4978498;28;20046;-79
2021/11/06 06:40:51;;;;;;;21.13;15.82;;;4.10;99.90;;;;;;4981723;28;20376;-79
2021/11/06 06:43:16;;;;;;;20.80;16.48;;;4.00;99.90;;;;;;4982594;28;20105;-78
2021/11/06 06:45:42;;;;;;;24.40;17.13;;;4.00;99.90;;;;;;4993407;28;20035;-77
2021/11/06 06:48:07;;;;;;;24.90;17.38;;;4.10;99.90;;;;;;4990985;28;20030;-78
2021/11/06 06:50:33;;;;;;;22.23;16.45;;;4.20;99.90;;;;;;4997060;28;20040;-80
2021/11/06 06:52:58;;;;;;;17.40;14.65;;;4.30;99.90;;;;;;4994390;28;20034;-82
2021/11/06 06:55:24;;;;;;;16.30;11.93;;;4.30;99.90;;;;;;5004092;28;20050;-80
2021/11/06 06:57:49;;;;;;;14.85;11.85;;;4.20;99.90;;;;;;4992155;28;20023;-78
2021/11/06 07:00:16;;;;;;;17.00;12.25;;;4.20;99.90;;;;;;4997027;28;20019;-80
2021/11/06 07:02:42;;;;;;;14.38;11.82;;;4.20;99.90;;;;;;4997590;28;20027;-78
2021/11/06 07:05:08;;;;;;;14.52;11.88;;;4.20;99.90;;;;;;4997762;28;20518;-79
2021/11/06 07:07:34;;;;;;;11.68;10.43;;;4.40;99.90;;;;;;4998082;28;20475;-79
2021/11/06 07:10:00;;;;;;;14.88;11.50;;;4.30;99.90;;;;;;4993542;28;20509;-78
2021/11/06 07:12:26;;;;;;;13.45;10.95;;;4.30;99.90;;;;;;4997415;28;20193;-80
2021/11/06 07:14:53;;;;;;;11.57;9.85;;;4.20;99.90;;;;;;4995974;28;20030;-79
2021/11/06 07:17:19;;;;;;;13.13;10.80;;;4.30;99.90;;;;;;4997372;28;20026;-78
2021/11/06 07:19:44;;;;;;;12.80;10.77;;;4.30;99.90;;;;;;4998254;28;20019;-79
2021/11/06 07:22:10;;;;;;;13.10;10.63;;;4.30;99.90;;;;;;4992590;28;20058;-80
2021/11/06 07:24:36;;;;;;;12.70;10.10;;;4.30;99.90;;;;;;5009425;28;20018;-80
2021/11/06 07:27:06;;;;;;;12.00;9.77;;;4.40;99.90;;;;;;4988859;28;20029;-82
2021/11/06 07:29:32;;;;;;;11.80;10.05;;;4.50;99.90;;;;;;4988134;28;20053;-81
2021/11/06 07:31:58;;;;;;;14.10;11.00;;;4.50;99.90;;;;;;4997730;28;20293;-79
2021/11/06 07:34:24;;;;;;;14.38;10.05;;;4.60;99.90;;;;;;4995785;28;20022;-78
2021/11/06 07:36:50;;;;;;;15.52;10.85;;;4.60;99.90;;;;;;4997531;28;20030;-79
2021/11/06 07:39:17;;;;;;;10.88;9.45;;;4.70;99.90;;;;;;5001303;28;20027;-79
2021/11/06 07:41:42;;;;;;;14.63;11.02;;;4.70;99.90;;;;;;5004806;28;20027;-79
2021/11/06 07:44:09;;;;;;;12.65;9.63;;;4.60;99.90;;;;;;5006356;28;20037;-77
2021/11/06 07:46:35;;;;;;;15.63;10.85;;;4.70;99.90;;;;;;4998483;28;20018;-79
2021/11/06 07:49:00;;;;;;;14.05;10.48;;;4.70;99.90;;;;;;5011924;28;20430;-80
2021/11/06 07:51:29;;;;;;;14.75;9.95;;;4.80;99.90;;;;;;5003251;28;20054;-80
2021/11/06 07:53:55;;;;;;;14.93;10.40;;;4.70;99.90;;;;;;4987848;28;20197;-78
2021/11/06 07:56:21;;;;;;;15.48;10.48;;;4.80;99.90;;;;;;4990324;28;20022;-79
2021/11/06 07:58:46;;;;;;;13.85;10.50;;;4.80;99.90;;;;;;4998266;28;20113;-80
2021/11/06 08:01:12;;;;;;;18.45;10.88;;;4.90;99.90;;;;;;5005621;28;20025;-77
2021/11/06 08:03:38;;;;;;;18.02;12.68;;;4.80;99.90;;;;;;5007095;28;20026;-78
2021/11/06 08:06:05;;;;;;;16.25;11.15;;;4.90;99.90;;;;;;4998038;28;20065;-79
2021/11/06 08:08:30;;;;;;;14.75;10.60;;;5.00;99.90;;;;;;5004912;28;20113;-78
2021/11/06 08:10:56;;;;;;;15.80;11.65;;;5.20;99.90;;;;;;5014708;28;20049;-79
2021/11/06 08:13:22;;;;;;;17.30;11.32;;;5.20;99.90;;;;;;4994926;28;20399;-77
2021/11/06 08:15:48;;;;;;;14.70;10.95;;;5.10;99.90;;;;;;4996772;28;20030;-79
2021/11/06 08:18:14;;;;;;;15.98;10.68;;;5.20;99.90;;;;;;4995752;28;20034;-81
2021/11/06 08:20:39;;;;;;;15.07;11.07;;;5.20;99.90;;;;;;4997075;28;20390;-80
2021/11/06 08:23:05;;;;;;;16.17;11.18;;;5.10;99.90;;;;;;5013438;28;20034;-78
2021/11/06 08:25:31;;;;;;;16.67;10.93;;;5.30;99.90;;;;;;5013942;28;20197;-82
2021/11/06 08:27:57;;;;;;;16.60;10.85;;;5.30;99.90;;;;;;5000420;28;20479;-80
2021/11/06 08:30:25;;;;;;;16.65;11.20;;;5.60;99.90;;;;;;5004243;28;20026;-78
2021/11/06 08:32:55;;;;;;;17.25;10.77;;;5.40;99.90;;;;;;5018529;28;20038;-79
2021/11/06 08:35:22;;;;;;;15.77;10.45;;;5.50;99.90;;;;;;4992076;28;20142;-80
2021/11/06 08:37:48;;;;;;;18.70;11.57;;;5.40;99.90;;;;;;5002358;28;20030;-79
2021/11/06 08:40:14;;;;;;;15.55;11.18;;;5.40;99.90;;;;;;4989663;28;20022;-79
2021/11/06 08:42:40;;;;;;;16.73;10.32;;;5.40;99.90;;;;;;4999515;28;20106;-78
2021/11/06 08:45:08;;;;;;;19.10;11.65;;;5.50;99.90;;;;;;4999283;28;20479;-79
2021/11/06 08:47:35;;;;;;;19.42;11.60;;;5.40;99.90;;;;;;4999410;28;20022;-78
2021/11/06 08:50:03;;;;;;;17.92;11.65;;;5.50;99.90;;;;;;4995604;28;20673;-79
2021/11/06 08:52:28;;;;;;;16.33;12.00;;;5.60;99.90;;;;;;4988250;28;20113;-80
2021/11/06 08:54:54;;;;;;;17.80;12.18;;;5.70;99.90;;;;;;4980590;28;20154;-78
2021/11/06 08:57:20;;;;;;;17.27;11.63;;;5.80;99.90;;;;;;4980978;28;20232;-80
2021/11/06 08:59:49;;;;;;;18.40;12.65;;;5.90;99.90;;;;;;4987522;28;20110;-82
2021/11/06 09:02:17;;;;;;;19.15;11.32;;;6.00;99.90;;;;;;4988563;28;20034;-79
2021/11/06 09:04:44;;;;;;;18.30;12.20;;;5.90;99.90;;;;;;4989389;28;20038;-79
2021/11/06 09:07:10;;;;;;;17.40;11.90;;;5.80;99.90;;;;;;4987919;28;20030;-80
2021/11/06 09:09:36;;;;;;;23.20;12.45;;;5.80;99.90;;;;;;4986853;28;20041;-78
2021/11/06 09:12:04;;;;;;;15.98;11.73;;;5.90;99.90;;;;;;4987245;28;20094;-81
2021/11/06 09:14:30;;;;;;;20.52;12.85;;;6.00;99.90;;;;;;4984127;28;20026;-79
2021/11/06 09:16:58;;;;;;;17.75;11.93;;;6.00;99.90;;;;;;4989830;28;20037;-80
2021/11/06 09:19:23;;;;;;;15.63;10.98;;;6.00;99.90;;;;;;5004223;28;20510;-79
2021/11/06 09:21:49;;;;;;;22.27;13.68;;;6.20;99.90;;;;;;4988963;28;20027;-78
2021/11/06 09:24:17;;;;;;;19.02;12.73;;;6.10;99.90;;;;;;4998241;28;20018;-79
2021/11/06 09:26:45;;;;;;;17.63;12.85;;;5.90;99.90;;;;;;4989859;28;20445;-79
2021/11/06 09:29:12;;;;;;;17.83;12.02;;;5.90;99.90;;;;;;5016073;28;20045;-81
2021/11/06 09:31:39;;;;;;;18.10;12.45;;;6.00;99.90;;;;;;5015240;28;20006;-82
2021/11/06 09:34:05;;;;;;;16.58;12.68;;;6.10;99.90;;;;;;5006136;28;20033;-83
2021/11/06 09:36:32;;;;;;;16.83;12.70;;;6.20;99.90;;;;;;4998992;28;20065;-81
2021/11/06 09:39:01;;;;;;;19.40;12.43;;;6.30;99.90;;;;;;4991774;28;20027;-84
2021/11/06 09:41:27;;;;;;;19.90;12.43;;;6.40;99.90;;;;;;4996449;28;20037;-76
2021/11/06 09:43:53;;;;;;;16.30;12.98;;;6.40;99.90;;;;;;4990109;28;20030;-80
2021/11/06 09:46:18;;;;;;;16.70;12.13;;;6.70;99.90;;;;;;4996442;28;20031;-80
2021/11/06 09:48:48;;;;;;;15.57;10.27;;;6.40;99.90;;;;;;4995286;28;20101;-78
2021/11/06 09:51:16;;;;;;;11.70;9.07;;;6.50;99.90;;;;;;4987521;28;20027;-78
2021/11/06 09:53:44;;;;;;;14.90;9.82;;;7.20;99.90;;;;;;5004106;28;20023;-78
2021/11/06 09:56:16;;;;;;;14.48;10.73;;;7.60;99.90;;;;;;5010102;28;20027;-84
2021/11/06 09:58:43;;;;;;;16.27;11.45;;;7.70;99.90;;;;;;5009201;28;20054;-79
2021/11/06 10:01:09;;;;;;;15.02;10.65;;;7.70;99.90;;;;;;5000058;28;20088;-85
2021/11/06 10:03:36;;;;;;;13.32;10.63;;;7.50;99.90;;;;;;5005694;28;20037;-81
2021/11/06 10:06:04;;;;;;;16.80;11.60;;;7.80;99.90;;;;;;4997329;28;20023;-81
2021/11/06 10:08:38;;;;;;;17.58;11.00;;;7.90;99.90;;;;;;4995957;28;20026;-78
2021/11/06 10:11:09;;;;;;;15.18;11.07;;;7.90;99.90;;;;;;4992213;28;20045;-79
2021/11/06 10:13:48;;;;;;;14.45;10.95;;;8.00;99.90;;;;;;4994704;28;20153;-79
2021/11/06 10:16:13;;;;;;;15.77;11.95;;;7.90;99.90;;;;;;4989468;28;20043;-78
2021/11/06 10:18:39;;;;;;;17.75;11.93;;;7.90;99.90;;;;;;4987749;28;20050;-77
2021/11/06 10:21:07;;;;;;;16.00;10.98;;;7.80;99.90;;;;;;4990217;28;20033;-77
2021/11/06 10:23:41;;;;;;;16.42;11.57;;;7.90;99.90;;;;;;4992776;28;20042;-77
2021/11/06 10:26:18;;;;;;;14.65;11.18;;;8.00;99.90;;;;;;5003093;28;20030;-76
2021/11/06 10:28:53;;;;;;;13.80;11.18;;;8.00;99.90;;;;;;5002235;28;20057;-79
2021/11/06 10:31:19;;;;;;;16.63;12.23;;;8.00;99.90;;;;;;4991624;28;20077;-79
2021/11/06 10:33:49;;;;;;;19.63;11.65;;;7.90;99.90;;;;;;4991298;28;20031;-78
2021/11/06 10:36:20;;;;;;;17.42;12.90;;;7.70;99.90;;;;;;5000611;28;20021;-79
2021/11/06 10:39:21;;;;;;;;;;;8.10;99.90;;;;;;4999897;28;20037;-79
2021/11/06 10:41:47;;;;;;;16.17;12.73;;;8.30;99.90;;;;;;4991743;28;19914;-80
2021/11/06 10:44:15;;;;;;;16.55;12.10;;;8.30;99.90;;;;;;4995466;28;20045;-81
2021/11/06 10:46:52;;;;;;;18.67;13.13;;;8.30;99.90;;;;;;4992266;28;20073;-81
2021/11/06 10:49:40;;;;;;;19.33;13.50;;;8.20;99.90;;;;;;4992085;28;20030;-80
2021/11/06 10:52:18;;;;;;;17.23;12.50;;;8.20;99.90;;;;;;5011690;28;20587;-79
2021/11/06 10:55:05;;;;;;;17.27;13.25;;;8.10;99.90;;;;;;4996872;28;20061;-79
2021/11/06 10:57:32;;;;;;;16.88;12.75;;;8.20;99.90;;;;;;4996626;28;20034;-79
2021/11/06 11:00:18;;;;;;;18.38;13.57;;;8.20;99.90;;;;;;4995235;28;20065;-80
2021/11/06 11:02:43;;;;;;;21.60;14.60;;;8.10;99.90;;;;;;4988901;28;20113;-79
2021/11/06 11:05:30;;;;;;;18.58;13.35;;;8.00;99.90;;;;;;4995605;28;20030;-77
2021/11/06 11:08:07;;;;;;;19.77;15.35;;;8.30;99.90;;;;;;4993091;28;20061;-79
2021/11/06 11:10:32;;;;;;;22.75;13.50;;;8.40;99.90;;;;;;4991718;28;20053;-78
2021/11/06 11:13:18;;;;;;;20.98;14.77;;;8.50;99.90;;;;;;4994896;28;20022;-76
2021/11/06 11:15:47;;;;;;;24.48;15.13;;;8.60;99.90;;;;;;5001004;28;20090;-76
2021/11/06 11:18:32;;;;;;;22.58;15.27;;;8.60;99.90;;;;;;4995364;28;20052;-79
2021/11/06 11:21:21;;;;;;;21.77;14.45;;;8.70;99.90;;;;;;4990735;28;20022;-78
2021/11/06 11:23:56;;;;;;;21.10;15.32;;;8.80;99.90;;;;;;4995615;28;20029;-78
2021/11/06 11:26:26;;;;;;;25.15;17.30;;;8.80;99.90;;;;;;4995587;28;20033;-77
2021/11/06 11:28:52;;;;;;;22.55;15.80;;;8.90;99.90;;;;;;4990122;28;20446;-78
2021/11/06 11:31:21;;;;;;;22.30;15.30;;;8.80;99.90;;;;;;4998551;28;20088;-77
2021/11/06 11:33:47;;;;;;;22.83;16.40;;;8.80;99.90;;;;;;4999981;28;20039;-78
2021/11/06 11:36:16;;;;;;;21.08;15.80;;;8.90;99.90;;;;;;5004208;28;20054;-78
2021/11/06 11:38:44;;;;;;;24.40;16.90;;;9.00;99.90;;;;;;5004076;28;20435;-77
2021/11/06 11:41:23;;;;;;;20.70;15.10;;;9.00;99.90;;;;;;5001864;28;20022;-79
2021/11/06 11:43:52;;;;;;;21.70;17.08;;;9.00;99.90;;;;;;4991919;28;20454;-76
2021/11/06 11:46:26;;;;;;;23.38;16.52;;;8.90;99.90;;;;;;4990437;28;20030;-78
2021/11/06 11:48:53;;;;;;;19.85;15.25;;;8.90;99.90;;;;;;4999965;28;20117;-80
2021/11/06 11:51:32;;;;;;;20.85;15.93;;;9.00;99.90;;;;;;4999544;28;20034;-80
2021/11/06 11:54:07;;;;;;;25.70;17.50;;;9.20;99.90;;;;;;5004162;28;20088;-78
2021/11/06 11:56:34;;;;;;;27.00;19.45;;;9.20;99.90;;;;;;5003502;28;20045;-78
2021/11/06 11:59:01;;;;;;;23.13;17.17;;;9.30;99.90;;;;;;5000002;28;20026;-80
2021/11/06 12:03:57;;;;;;;25.02;18.88;;;9.30;99.90;;;;;;5026149;28;20030;-79
2021/11/06 12:06:29;;;;;;;29.60;19.25;;;9.20;99.90;;;;;;5032052;28;20026;-79
2021/11/06 12:08:58;;;;;;;24.65;17.10;;;9.10;99.90;;;;;;5030430;28;20090;-81
2021/11/06 12:11:31;;;;;;;24.10;16.98;;;9.20;99.90;;;;;;5003362;28;20030;-78
2021/11/06 12:13:58;;;;;;;24.13;17.33;;;9.10;99.90;;;;;;5011011;28;20049;-80
2021/11/06 12:16:40;;;;;;;24.27;17.45;;;9.10;99.90;;;;;;5013096;28;20030;-82
2021/11/06 12:19:05;;;;;;;29.38;19.05;;;9.00;99.90;;;;;;5027191;28;20018;-82
2021/11/06 12:21:42;;;;;;;26.13;19.40;;;9.00;99.90;;;;;;5016912;28;20022;-81
2021/11/06 12:24:11;;;;;;;22.67;17.30;;;8.90;99.90;;;;;;5020531;28;20080;-80
2021/11/06 12:26:53;;;;;;;25.13;18.27;;;8.70;99.90;;;;;;5021395;28;20080;-84
2021/11/06 12:29:19;;;;;;;26.67;17.85;;;8.60;99.90;;;;;;5022440;28;20390;-81
2021/11/06 12:31:46;;;;;;;27.20;18.95;;;8.40;99.90;;;;;;5025001;28;20113;-79
2021/11/06 12:34:41;;;;;;;29.50;20.27;;;8.30;99.90;;;;;;5026953;28;20034;-82
2021/11/06 12:37:08;;;;;;;29.50;21.33;;;8.30;99.90;;;;;;5029626;28;20049;-80
2021/11/06 12:42:13;;;;;;;31.88;22.52;;;8.20;99.90;;;;;;4977585;28;20050;-78
2021/11/06 12:45:12;;;;;;;30.52;20.92;;;8.20;99.90;;;;;;4978593;28;20134;-77
2021/11/06 12:47:55;;;;;;;29.40;19.38;;;8.10;99.90;;;;;;4967607;28;20487;-75